createdAt,value
2017-10-08T00:00:13.225Z,83.03
2017-10-08T00:01:20.045Z,83.05
2017-10-08T00:02:26.905Z,83.07
2017-10-08T00:03:33.734Z,83.06
2017-10-08T00:04:40.599Z,83.09
2017-10-08T00:05:47.418Z,83.12
2017-10-08T00:06:54.209Z,83.15
2017-10-08T00:08:01.024Z,83.17
2017-10-08T00:09:07.894Z,83.16
2017-10-08T00:10:14.754Z,83.20
2017-10-08T00:11:21.665Z,83.20
2017-10-08T00:12:28.795Z,83.26
2017-10-08T00:13:35.566Z,83.27
2017-10-08T00:14:42.461Z,83.31
2017-10-08T00:15:49.284Z,83.30
2017-10-08T00:16:56.122Z,83.37
2017-10-08T00:18:05.594Z,83.40
2017-10-08T00:19:10.123Z,83.43
2017-10-08T00:20:17.363Z,83.41
2017-10-08T00:21:24.313Z,83.46
2017-10-08T00:22:31.082Z,83.47
2017-10-08T00:23:38.155Z,83.53
2017-10-08T00:24:45.211Z,83.57
2017-10-08T00:25:51.914Z,83.58
2017-10-08T00:26:59.569Z,83.61
2017-10-08T00:28:05.962Z,83.64
2017-10-08T00:29:12.652Z,83.65
2017-10-08T00:31:27.023Z,83.71
2017-10-08T00:32:35.301Z,83.72
2017-10-08T00:34:48.166Z,83.74
2017-10-08T00:37:02.021Z,83.81
2017-10-08T00:38:09.337Z,83.85
2017-10-08T00:39:16.237Z,83.84
2017-10-08T00:40:29.697Z,83.84
2017-10-08T00:41:30.456Z,83.87
2017-10-08T00:42:37.292Z,83.93
2017-10-08T00:43:44.499Z,83.93
2017-10-08T00:44:51.174Z,83.91
2017-10-08T00:47:04.795Z,83.92
2017-10-08T00:49:18.902Z,83.96
2017-10-08T00:50:29.152Z,84.00
2017-10-08T00:51:32.423Z,84.08
2017-10-08T00:52:39.510Z,84.09
2017-10-08T00:53:46.490Z,84.07
2017-10-08T00:54:53.388Z,84.08
2017-10-08T00:56:00.273Z,84.09
2017-10-08T00:57:07.267Z,84.11
2017-10-08T00:59:21.282Z,84.13
2017-10-08T01:00:28.205Z,84.16
2017-10-08T01:01:35.214Z,84.23
2017-10-08T01:02:42.246Z,84.21
2017-10-08T01:03:49.118Z,84.18
2017-10-08T01:04:56.158Z,84.21
2017-10-08T01:06:03.147Z,84.23
2017-10-08T01:07:10.098Z,84.28
2017-10-08T01:08:16.961Z,84.28
2017-10-08T01:09:23.966Z,84.26
2017-10-08T01:10:30.982Z,84.31
2017-10-08T01:11:37.858Z,84.31
2017-10-08T01:12:44.846Z,84.34
2017-10-08T01:13:51.719Z,84.38
2017-10-08T01:14:58.674Z,84.37
2017-10-08T01:16:07.556Z,84.41
2017-10-08T01:17:12.211Z,84.46
2017-10-08T01:18:19.197Z,84.44
2017-10-08T01:19:26.145Z,84.45
2017-10-08T01:20:33.174Z,84.50
2017-10-08T01:21:40.059Z,84.47
2017-10-08T01:22:47.078Z,84.51
2017-10-08T01:23:53.769Z,84.48
2017-10-08T01:25:00.789Z,84.49
2017-10-08T01:26:07.798Z,84.51
2017-10-08T01:27:14.694Z,84.51
2017-10-08T01:28:21.619Z,84.55
2017-10-08T01:29:28.510Z,84.56
2017-10-08T01:30:35.471Z,84.64
2017-10-08T01:31:42.475Z,84.62
2017-10-08T01:32:49.397Z,84.63
2017-10-08T01:33:56.313Z,84.63
2017-10-08T01:35:03.349Z,84.69
2017-10-08T01:36:10.306Z,84.70
2017-10-08T01:37:17.239Z,84.69
2017-10-08T01:38:24.166Z,84.69
2017-10-08T01:39:31.125Z,84.73
2017-10-08T01:40:38.018Z,84.76
2017-10-08T01:41:44.999Z,84.78
2017-10-08T01:42:51.897Z,84.76
2017-10-08T01:43:58.832Z,84.79
2017-10-08T01:45:05.843Z,84.79
2017-10-08T01:46:12.742Z,84.79
2017-10-08T01:47:19.655Z,84.80
2017-10-08T01:48:26.517Z,84.82
2017-10-08T01:49:33.426Z,84.80
2017-10-08T01:50:40.329Z,84.83
2017-10-08T01:51:47.210Z,84.83
2017-10-08T01:52:54.157Z,84.88
2017-10-08T01:54:01.044Z,84.87
2017-10-08T01:55:07.948Z,84.87
2017-10-08T01:56:14.950Z,84.92
2017-10-08T01:57:21.841Z,84.96
2017-10-08T01:58:28.795Z,84.96
2017-10-08T01:59:35.682Z,84.94
2017-10-08T02:00:42.558Z,84.95
2017-10-08T02:01:49.423Z,84.92
2017-10-08T02:02:56.388Z,84.96
2017-10-08T02:04:03.023Z,84.99
2017-10-08T02:05:10.251Z,84.98
2017-10-08T02:06:17.214Z,85.01
2017-10-08T02:07:24.269Z,85.03
2017-10-08T02:08:31.117Z,85.04
2017-10-08T02:09:38.002Z,85.06
2017-10-08T02:10:44.871Z,85.07
2017-10-08T02:11:51.734Z,85.10
2017-10-08T02:12:58.525Z,85.11
2017-10-08T02:14:05.449Z,85.10
2017-10-08T02:15:12.362Z,85.14
2017-10-08T02:16:19.229Z,85.16
2017-10-08T02:17:26.034Z,85.15
2017-10-08T02:18:32.809Z,85.17
2017-10-08T02:19:39.706Z,85.20
2017-10-08T02:20:46.689Z,85.20
2017-10-08T02:21:53.517Z,85.28
2017-10-08T02:23:00.290Z,85.29
2017-10-08T02:24:07.165Z,85.30
2017-10-08T02:25:13.982Z,85.30
2017-10-08T02:26:20.769Z,85.36
2017-10-08T02:27:27.757Z,85.39
2017-10-08T02:28:34.745Z,85.39
2017-10-08T02:29:41.623Z,85.42
2017-10-08T02:30:48.446Z,85.41
2017-10-08T02:31:55.253Z,85.41
2017-10-08T02:33:02.176Z,85.43
2017-10-08T02:34:09.080Z,85.47
2017-10-08T02:35:15.922Z,85.46
2017-10-08T02:36:22.849Z,85.47
2017-10-08T02:37:29.649Z,85.49
2017-10-08T02:38:36.451Z,85.50
2017-10-08T02:39:43.346Z,85.50
2017-10-08T02:40:50.191Z,85.51
2017-10-08T02:41:57.138Z,85.52
2017-10-08T02:43:03.919Z,85.57
2017-10-08T02:44:10.821Z,85.61
2017-10-08T02:45:17.688Z,85.60
2017-10-08T02:46:24.570Z,85.62
2017-10-08T02:47:31.534Z,85.63
2017-10-08T02:48:38.395Z,85.63
2017-10-08T02:49:45.386Z,85.62
2017-10-08T02:50:52.399Z,85.63
2017-10-08T02:51:59.263Z,85.62
2017-10-08T02:53:06.160Z,85.60
2017-10-08T02:54:13.001Z,85.56
2017-10-08T02:55:19.926Z,85.60
2017-10-08T02:56:26.838Z,85.60
2017-10-08T02:57:33.778Z,85.63
2017-10-08T02:58:40.586Z,85.66
2017-10-08T02:59:47.422Z,85.67
2017-10-08T03:00:54.201Z,85.65
2017-10-08T03:02:01.034Z,85.65
2017-10-08T03:03:07.864Z,85.67
2017-10-08T03:04:14.770Z,85.72
2017-10-08T03:05:21.609Z,85.72
2017-10-08T03:06:28.394Z,85.71
2017-10-08T03:07:35.269Z,85.72
2017-10-08T03:08:42.131Z,85.74
2017-10-08T03:09:48.966Z,85.76
2017-10-08T03:10:55.926Z,85.75
2017-10-08T03:12:02.828Z,85.78
2017-10-08T03:13:09.737Z,85.80
2017-10-08T03:14:16.550Z,85.78
2017-10-08T03:15:23.478Z,85.79
2017-10-08T03:16:30.272Z,85.82
2017-10-08T03:17:37.077Z,85.81
2017-10-08T03:18:43.881Z,85.82
2017-10-08T03:19:50.825Z,85.81
2017-10-08T03:20:57.650Z,85.83
2017-10-08T03:22:04.541Z,85.84
2017-10-08T03:23:11.409Z,85.84
2017-10-08T03:24:18.213Z,85.86
2017-10-08T03:25:25.004Z,85.86
2017-10-08T03:26:31.879Z,85.90
2017-10-08T03:27:39.004Z,85.90
2017-10-08T03:28:46.024Z,85.90
2017-10-08T03:29:52.947Z,85.92
2017-10-08T03:30:59.866Z,85.91
2017-10-08T03:32:06.723Z,85.91
2017-10-08T03:33:13.579Z,85.92
2017-10-08T03:34:20.458Z,85.92
2017-10-08T03:35:27.357Z,85.95
2017-10-08T03:36:34.197Z,86.01
2017-10-08T03:37:41.039Z,85.99
2017-10-08T03:38:47.883Z,86.04
2017-10-08T03:39:54.782Z,86.09
2017-10-08T03:41:01.642Z,86.04
2017-10-08T03:42:08.485Z,86.03
2017-10-08T03:43:15.375Z,86.02
2017-10-08T03:44:22.157Z,86.03
2017-10-08T03:45:29.074Z,86.07
2017-10-08T03:46:35.968Z,86.07
2017-10-08T03:47:42.861Z,86.09
2017-10-08T03:48:49.660Z,86.08
2017-10-08T03:49:56.553Z,86.12
2017-10-08T03:51:03.391Z,86.13
2017-10-08T03:52:10.165Z,86.14
2017-10-08T03:53:17.002Z,86.18
2017-10-08T03:54:23.837Z,86.17
2017-10-08T03:55:30.659Z,86.19
2017-10-08T03:56:37.513Z,86.19
2017-10-08T03:57:44.397Z,86.20
2017-10-08T03:58:51.238Z,86.20
2017-10-08T03:59:58.210Z,86.19
2017-10-08T04:01:05.005Z,86.19
2017-10-08T04:02:11.854Z,86.20
2017-10-08T04:03:18.673Z,86.26
2017-10-08T04:04:25.495Z,86.26
2017-10-08T04:05:32.289Z,86.27
2017-10-08T04:06:39.093Z,86.29
2017-10-08T04:07:45.885Z,86.33
2017-10-08T04:08:52.729Z,86.33
2017-10-08T04:09:59.642Z,86.28
2017-10-08T04:11:06.550Z,86.31
2017-10-08T04:12:13.438Z,86.26
2017-10-08T04:13:20.242Z,86.28
2017-10-08T04:14:27.133Z,86.27
2017-10-08T04:15:33.967Z,86.29
2017-10-08T04:16:40.887Z,86.32
2017-10-08T04:17:47.689Z,86.34
2017-10-08T04:18:54.574Z,86.35
2017-10-08T04:20:01.457Z,86.35
2017-10-08T04:21:08.378Z,86.34
2017-10-08T04:22:15.341Z,86.36
2017-10-08T04:23:22.129Z,86.35
2017-10-08T04:24:29.107Z,86.36
2017-10-08T04:25:36.102Z,86.37
2017-10-08T04:26:42.958Z,86.40
2017-10-08T04:27:49.801Z,86.44
2017-10-08T04:28:56.639Z,86.45
2017-10-08T04:30:03.497Z,86.42
2017-10-08T04:31:10.437Z,86.43
2017-10-08T04:32:17.343Z,86.38
2017-10-08T04:33:24.157Z,86.36
2017-10-08T04:34:31.081Z,86.35
2017-10-08T04:35:37.922Z,86.35
2017-10-08T04:36:44.741Z,86.43
2017-10-08T04:37:51.621Z,86.45
2017-10-08T04:38:58.522Z,86.46
2017-10-08T04:40:05.326Z,86.45
2017-10-08T04:41:12.221Z,86.48
2017-10-08T04:42:19.117Z,86.51
2017-10-08T04:43:25.915Z,86.51
2017-10-08T04:44:32.750Z,86.52
2017-10-08T04:45:39.538Z,86.51
2017-10-08T04:46:46.383Z,86.48
2017-10-08T04:47:53.356Z,86.47
2017-10-08T04:49:00.201Z,86.50
2017-10-08T04:50:07.145Z,86.53
2017-10-08T04:51:13.954Z,86.53
2017-10-08T04:52:20.788Z,86.53
2017-10-08T04:53:27.624Z,86.54
2017-10-08T04:54:34.533Z,86.59
2017-10-08T04:55:41.405Z,86.58
2017-10-08T04:56:48.226Z,86.57
2017-10-08T04:57:55.061Z,86.61
2017-10-08T04:59:01.933Z,86.62
2017-10-08T05:00:08.769Z,86.63
2017-10-08T05:01:15.641Z,86.65
2017-10-08T05:02:22.477Z,86.63
2017-10-08T05:03:29.331Z,86.61
2017-10-08T05:04:36.203Z,86.61
2017-10-08T05:05:43.284Z,86.68
2017-10-08T05:06:49.921Z,86.69
2017-10-08T05:07:56.789Z,86.72
2017-10-08T05:09:03.666Z,86.75
2017-10-08T05:10:10.594Z,86.75
2017-10-08T05:11:17.891Z,86.78
2017-10-08T05:12:24.523Z,86.76
2017-10-08T05:13:31.520Z,86.80
2017-10-08T05:14:38.487Z,86.79
2017-10-08T05:15:45.462Z,86.78
2017-10-08T05:16:52.712Z,86.77
2017-10-08T05:17:59.199Z,86.75
2017-10-08T05:19:06.178Z,86.79
2017-10-08T05:20:13.126Z,86.74
2017-10-08T05:21:20.225Z,86.73
2017-10-08T05:22:27.258Z,86.72
2017-10-08T05:23:34.211Z,86.73
2017-10-08T05:24:41.142Z,86.74
2017-10-08T05:25:48.147Z,86.75
2017-10-08T05:26:55.101Z,86.74
2017-10-08T05:28:02.022Z,86.75
2017-10-08T05:29:08.915Z,86.77
2017-10-08T05:30:15.773Z,86.79
2017-10-08T05:31:22.655Z,86.81
2017-10-08T05:32:29.555Z,86.80
2017-10-08T05:33:36.538Z,86.80
2017-10-08T05:34:43.483Z,86.84
2017-10-08T05:35:50.385Z,86.87
2017-10-08T05:36:57.230Z,86.87
2017-10-08T05:38:04.149Z,86.87
2017-10-08T05:39:11.139Z,86.86
2017-10-08T05:40:18.062Z,86.85
2017-10-08T05:41:24.917Z,86.93
2017-10-08T05:42:31.782Z,86.92
2017-10-08T05:43:38.562Z,86.94
2017-10-08T05:44:45.398Z,86.93
2017-10-08T05:45:52.234Z,86.93
2017-10-08T05:46:59.122Z,86.94
2017-10-08T05:48:06.169Z,86.95
2017-10-08T05:49:13.025Z,86.88
2017-10-08T05:50:19.894Z,86.84
2017-10-08T05:51:26.760Z,86.84
2017-10-08T05:52:33.598Z,86.84
2017-10-08T05:53:40.497Z,86.82
2017-10-08T05:54:47.362Z,86.83
2017-10-08T05:55:54.212Z,86.81
2017-10-08T05:57:01.126Z,86.81
2017-10-08T05:58:07.983Z,86.83
2017-10-08T05:59:14.876Z,86.79
2017-10-08T06:00:21.765Z,86.78
2017-10-08T06:01:28.589Z,86.79
2017-10-08T06:02:35.405Z,86.78
2017-10-08T06:03:42.259Z,86.80
2017-10-08T06:04:49.080Z,86.84
2017-10-08T06:05:55.971Z,86.81
2017-10-08T06:07:02.881Z,86.81
2017-10-08T06:08:09.767Z,86.81
2017-10-08T06:09:17.326Z,86.82
2017-10-08T06:10:23.828Z,86.86
2017-10-08T06:11:30.909Z,86.91
2017-10-08T06:12:37.525Z,86.94
2017-10-08T06:13:44.613Z,87.00
2017-10-08T06:14:51.584Z,86.96
2017-10-08T06:15:58.381Z,86.99
2017-10-08T06:17:05.355Z,87.00
2017-10-08T06:18:12.014Z,87.00
2017-10-08T06:19:18.880Z,87.02
2017-10-08T06:20:25.782Z,87.02
2017-10-08T06:21:32.595Z,87.03
2017-10-08T06:22:39.504Z,87.04
2017-10-08T06:23:46.389Z,87.05
2017-10-08T06:24:53.290Z,87.03
2017-10-08T06:26:00.227Z,87.05
2017-10-08T06:27:07.293Z,87.10
2017-10-08T06:28:14.209Z,87.08
2017-10-08T06:29:21.118Z,87.03
2017-10-08T06:30:27.970Z,87.07
2017-10-08T06:31:35.023Z,87.07
2017-10-08T06:32:41.840Z,87.09
2017-10-08T06:33:48.757Z,87.07
2017-10-08T06:34:55.669Z,87.07
2017-10-08T06:36:03.192Z,87.08
2017-10-08T06:37:09.497Z,87.07
2017-10-08T06:38:16.345Z,87.06
2017-10-08T06:39:23.363Z,87.08
2017-10-08T06:40:30.397Z,87.13
2017-10-08T06:41:37.345Z,87.19
2017-10-08T06:42:44.494Z,87.23
2017-10-08T06:43:51.374Z,87.26
2017-10-08T06:44:58.181Z,87.33
2017-10-08T06:46:04.998Z,87.33
2017-10-08T06:47:11.798Z,87.37
2017-10-08T06:48:18.590Z,87.36
2017-10-08T06:49:26.174Z,87.40
2017-10-08T06:50:32.359Z,87.41
2017-10-08T06:51:39.878Z,87.46
2017-10-08T06:52:46.706Z,87.49
2017-10-08T06:53:53.542Z,87.45
2017-10-08T06:55:00.355Z,87.46
2017-10-08T06:56:07.262Z,87.49
2017-10-08T06:57:14.197Z,87.51
2017-10-08T06:58:21.216Z,87.53
2017-10-08T06:59:28.133Z,87.52
2017-10-08T07:00:34.881Z,87.54
2017-10-08T07:01:41.889Z,87.54
2017-10-08T07:02:49.333Z,87.57
2017-10-08T07:03:55.899Z,87.56
2017-10-08T07:05:02.759Z,87.58
2017-10-08T07:06:09.649Z,87.60
2017-10-08T07:07:16.521Z,87.61
2017-10-08T07:08:23.629Z,87.66
2017-10-08T07:09:30.509Z,87.68
2017-10-08T07:10:37.334Z,87.69
2017-10-08T07:11:44.602Z,87.71
2017-10-08T07:12:51.397Z,87.72
2017-10-08T07:13:58.236Z,87.78
2017-10-08T07:15:05.154Z,87.83
2017-10-08T07:16:11.993Z,87.86
2017-10-08T07:17:18.816Z,87.92
2017-10-08T07:18:25.688Z,87.93
2017-10-08T07:19:32.529Z,87.96
2017-10-08T07:20:39.474Z,87.96
2017-10-08T07:21:46.485Z,87.99
2017-10-08T07:22:53.425Z,88.02
2017-10-08T07:24:00.234Z,88.03
2017-10-08T07:25:07.189Z,88.04
2017-10-08T07:26:14.019Z,88.06
2017-10-08T07:27:21.298Z,88.11
2017-10-08T07:28:27.913Z,88.18
2017-10-08T07:29:34.674Z,88.29
2017-10-08T07:30:41.500Z,88.35
2017-10-08T07:31:48.180Z,88.42
2017-10-08T07:32:54.975Z,88.51
2017-10-08T07:34:01.937Z,88.57
2017-10-08T07:35:08.779Z,88.61
2017-10-08T07:36:15.596Z,88.61
2017-10-08T07:37:22.439Z,88.65
2017-10-08T07:38:29.392Z,88.68
2017-10-08T07:39:36.318Z,88.72
2017-10-08T07:40:43.196Z,88.79
2017-10-08T07:41:49.958Z,88.88
2017-10-08T07:42:56.761Z,88.90
2017-10-08T07:44:03.664Z,88.94
2017-10-08T07:45:10.481Z,89.02
2017-10-08T07:46:17.374Z,89.01
2017-10-08T07:47:24.217Z,89.01
2017-10-08T07:48:31.004Z,89.06
2017-10-08T07:49:37.858Z,89.01
2017-10-08T07:50:44.709Z,89.00
2017-10-08T07:51:51.519Z,89.05
2017-10-08T07:52:58.323Z,89.01
2017-10-08T07:54:05.145Z,89.05
2017-10-08T07:55:12.285Z,89.06
2017-10-08T07:56:19.089Z,89.08
2017-10-08T07:57:25.898Z,89.08
2017-10-08T07:58:32.708Z,89.07
2017-10-08T07:59:39.506Z,89.11
2017-10-08T08:00:46.305Z,89.18
2017-10-08T08:01:53.161Z,89.17
2017-10-08T08:03:00.115Z,89.17
2017-10-08T08:04:06.975Z,89.21
2017-10-08T08:05:13.823Z,89.23
2017-10-08T08:06:20.641Z,89.22
2017-10-08T08:07:27.416Z,89.24
2017-10-08T08:08:34.333Z,89.23
2017-10-08T08:09:41.160Z,89.23
2017-10-08T08:10:47.997Z,89.26
2017-10-08T08:11:54.805Z,89.28
2017-10-08T08:13:01.598Z,89.33
2017-10-08T08:14:08.407Z,89.35
2017-10-08T08:15:15.413Z,89.37
2017-10-08T08:16:22.185Z,89.38
2017-10-08T08:17:29.014Z,89.40
2017-10-08T08:18:35.973Z,89.49
2017-10-08T08:19:42.782Z,89.53
2017-10-08T08:20:49.557Z,89.60
2017-10-08T08:21:56.370Z,89.60
2017-10-08T08:23:03.410Z,89.53
2017-10-08T08:24:10.274Z,89.45
2017-10-08T08:25:17.097Z,89.47
2017-10-08T08:26:23.905Z,89.46
2017-10-08T08:27:30.733Z,89.45
2017-10-08T08:28:37.537Z,89.49
2017-10-08T08:29:44.503Z,89.50
2017-10-08T08:30:51.453Z,89.52
2017-10-08T08:31:58.301Z,89.57
2017-10-08T08:33:05.089Z,89.56
2017-10-08T08:34:11.903Z,89.58
2017-10-08T08:35:18.710Z,89.60
2017-10-08T08:36:25.494Z,89.61
2017-10-08T08:37:32.228Z,89.62
2017-10-08T08:38:39.061Z,89.61
2017-10-08T08:39:45.929Z,89.61
2017-10-08T08:40:52.794Z,89.59
2017-10-08T08:41:59.660Z,89.63
2017-10-08T08:43:06.512Z,89.61
2017-10-08T08:44:13.397Z,89.64
2017-10-08T08:45:20.556Z,89.70
2017-10-08T08:46:27.380Z,89.74
2017-10-08T08:47:34.337Z,89.73
2017-10-08T08:48:41.175Z,89.74
2017-10-08T08:49:48.044Z,89.75
2017-10-08T08:50:55.225Z,89.76
2017-10-08T08:52:01.656Z,89.74
2017-10-08T08:53:08.706Z,89.76
2017-10-08T08:54:15.413Z,89.79
2017-10-08T08:55:22.283Z,89.85
2017-10-08T08:56:29.236Z,89.89
2017-10-08T08:57:36.021Z,89.95
2017-10-08T08:58:42.949Z,89.98
2017-10-08T08:59:49.844Z,90.00
2017-10-08T09:00:56.993Z,89.97
2017-10-08T09:02:03.754Z,90.00
2017-10-08T09:03:10.580Z,89.95
2017-10-08T09:04:17.477Z,89.97
2017-10-08T09:05:24.281Z,90.02
2017-10-08T09:06:31.438Z,89.99
2017-10-08T09:07:38.358Z,89.97
2017-10-08T09:08:45.564Z,89.93
2017-10-08T09:09:52.461Z,89.98
2017-10-08T09:10:59.389Z,89.98
2017-10-08T09:12:06.326Z,89.97
2017-10-08T09:13:13.163Z,89.96
2017-10-08T09:14:19.978Z,90.01
2017-10-08T09:15:26.837Z,90.02
2017-10-08T09:16:33.644Z,89.98
2017-10-08T09:17:40.469Z,90.01
2017-10-08T09:18:47.245Z,89.87
2017-10-08T09:19:54.134Z,89.87
2017-10-08T09:21:01.093Z,89.97
2017-10-08T09:22:07.890Z,90.02
2017-10-08T09:23:14.842Z,90.04
2017-10-08T09:24:22.152Z,90.06
2017-10-08T09:25:29.156Z,90.11
2017-10-08T09:26:36.163Z,90.20
2017-10-08T09:27:42.812Z,90.22
2017-10-08T09:28:49.664Z,90.33
2017-10-08T09:29:56.506Z,90.37
2017-10-08T09:31:03.354Z,90.38
2017-10-08T09:32:10.255Z,90.30
2017-10-08T09:33:17.057Z,90.30
2017-10-08T09:34:23.956Z,90.38
2017-10-08T09:35:30.805Z,90.45
2017-10-08T09:36:37.609Z,90.34
2017-10-08T09:37:44.397Z,90.17
2017-10-08T09:38:51.377Z,90.26
2017-10-08T09:39:58.181Z,90.24
2017-10-08T09:41:05.012Z,90.04
2017-10-08T09:42:11.965Z,89.99
2017-10-08T09:43:18.833Z,90.00
2017-10-08T09:44:25.924Z,90.17
2017-10-08T09:45:32.688Z,90.17
2017-10-08T09:46:39.517Z,90.08
2017-10-08T09:47:46.375Z,90.04
2017-10-08T09:48:53.406Z,90.06
2017-10-08T09:50:00.237Z,89.95
2017-10-08T09:51:07.178Z,89.78
2017-10-08T09:52:13.974Z,89.64
2017-10-08T09:53:20.785Z,89.48
2017-10-08T09:54:27.586Z,89.48
2017-10-08T09:55:34.462Z,89.48
2017-10-08T09:56:41.269Z,89.22
2017-10-08T09:57:48.044Z,89.20
2017-10-08T09:58:54.818Z,89.15
2017-10-08T10:00:01.581Z,89.13
2017-10-08T10:01:08.511Z,88.97
2017-10-08T10:02:15.417Z,88.60
2017-10-08T10:03:22.353Z,88.50
2017-10-08T10:04:34.336Z,88.50
2017-10-08T10:05:41.382Z,88.32
2017-10-08T10:06:43.177Z,88.42
2017-10-08T10:07:49.973Z,88.19
2017-10-08T10:08:56.802Z,88.09
2017-10-08T10:10:03.669Z,87.88
2017-10-08T10:11:10.511Z,87.85
2017-10-08T10:12:17.381Z,87.78
2017-10-08T10:13:24.245Z,87.65
2017-10-08T10:14:31.080Z,87.53
2017-10-08T10:15:37.908Z,87.19
2017-10-08T10:16:44.794Z,87.08
2017-10-08T10:17:51.638Z,87.14
2017-10-08T10:18:58.422Z,86.92
2017-10-08T10:20:05.178Z,86.97
2017-10-08T10:21:12.042Z,86.64
2017-10-08T10:22:18.802Z,86.34
2017-10-08T10:23:25.767Z,86.30
2017-10-08T10:24:32.614Z,86.21
2017-10-08T10:25:39.492Z,86.36
2017-10-08T10:26:46.280Z,86.03
2017-10-08T10:27:53.070Z,85.94
2017-10-08T10:28:59.797Z,85.83
2017-10-08T10:30:06.696Z,85.54
2017-10-08T10:31:13.280Z,85.38
2017-10-08T10:32:20.166Z,85.35
2017-10-08T10:33:27.028Z,85.45
2017-10-08T10:34:33.926Z,85.11
2017-10-08T10:35:40.702Z,84.98
2017-10-08T10:36:47.533Z,84.96
2017-10-08T10:37:54.343Z,84.75
2017-10-08T10:39:01.281Z,84.61
2017-10-08T10:40:07.916Z,84.76
2017-10-08T10:41:14.661Z,84.86
2017-10-08T10:42:21.459Z,84.69
2017-10-08T10:43:28.295Z,84.50
2017-10-08T10:44:35.132Z,84.45
2017-10-08T10:45:41.897Z,84.46
2017-10-08T10:46:48.637Z,84.38
2017-10-08T10:47:55.413Z,84.00
2017-10-08T10:49:02.229Z,83.92
2017-10-08T10:50:09.121Z,83.77
2017-10-08T10:51:16.073Z,83.81
2017-10-08T10:52:22.897Z,83.82
2017-10-08T10:53:29.763Z,83.55
2017-10-08T10:54:36.631Z,83.31
2017-10-08T10:55:43.508Z,83.21
2017-10-08T10:56:50.333Z,83.14
2017-10-08T10:57:57.117Z,82.92
2017-10-08T10:59:04.024Z,82.74
2017-10-08T11:00:10.866Z,82.61
2017-10-08T11:01:17.668Z,82.59
2017-10-08T11:02:24.486Z,82.54
2017-10-08T11:03:31.337Z,82.45
2017-10-08T11:04:38.506Z,82.20
2017-10-08T11:05:45.264Z,82.22
2017-10-08T11:06:52.006Z,82.13
2017-10-08T11:07:58.880Z,81.92
2017-10-08T11:09:05.787Z,81.75
2017-10-08T11:10:12.662Z,81.63
2017-10-08T11:11:19.500Z,81.45
2017-10-08T11:12:26.324Z,81.33
2017-10-08T11:13:33.119Z,81.28
2017-10-08T11:14:39.995Z,81.28
2017-10-08T11:15:46.746Z,81.27
2017-10-08T11:16:53.673Z,81.05
2017-10-08T11:18:00.413Z,81.16
2017-10-08T11:19:07.191Z,81.05
2017-10-08T11:20:13.981Z,80.85
2017-10-08T11:21:20.833Z,80.75
2017-10-08T11:22:27.786Z,80.58
2017-10-08T11:23:34.549Z,80.66
2017-10-08T11:24:41.315Z,80.55
2017-10-08T11:25:48.146Z,80.68
2017-10-08T11:26:54.929Z,80.57
2017-10-08T11:28:01.765Z,80.69
2017-10-08T11:29:08.619Z,80.59
2017-10-08T11:30:15.492Z,80.54
2017-10-08T11:31:22.317Z,80.38
2017-10-08T11:32:29.466Z,80.26
2017-10-08T11:33:36.197Z,80.37
2017-10-08T11:34:42.962Z,80.34
2017-10-08T11:35:49.834Z,80.07
2017-10-08T11:36:56.730Z,79.96
2017-10-08T11:38:03.503Z,79.90
2017-10-08T11:39:10.363Z,79.83
2017-10-08T11:40:17.190Z,79.97
2017-10-08T11:41:23.931Z,79.92
2017-10-08T11:42:30.844Z,80.01
2017-10-08T11:43:37.615Z,80.02
2017-10-08T11:44:44.405Z,79.94
2017-10-08T11:45:51.444Z,79.82
2017-10-08T11:46:58.246Z,79.80
2017-10-08T11:48:05.042Z,79.73
2017-10-08T11:49:11.794Z,79.86
2017-10-08T11:50:18.619Z,79.62
2017-10-08T11:51:25.514Z,79.74
2017-10-08T11:52:33.470Z,79.64
2017-10-08T11:53:39.343Z,79.76
2017-10-08T11:54:46.249Z,79.56
2017-10-08T11:55:53.149Z,79.47
2017-10-08T11:57:00.012Z,79.31
2017-10-08T11:58:06.847Z,79.35
2017-10-08T11:59:13.626Z,79.35
2017-10-08T12:00:20.465Z,79.33
2017-10-08T12:01:27.205Z,79.47
2017-10-08T12:02:34.001Z,79.50
2017-10-08T12:03:40.787Z,79.56
2017-10-08T12:04:47.529Z,79.24
2017-10-08T12:05:54.357Z,79.33
2017-10-08T12:07:01.130Z,79.29
2017-10-08T12:08:07.885Z,79.21
2017-10-08T12:09:14.654Z,79.05
2017-10-08T12:10:21.453Z,79.03
2017-10-08T12:11:28.365Z,79.12
2017-10-08T12:12:35.225Z,79.02
2017-10-08T12:13:42.018Z,78.79
2017-10-08T12:14:48.850Z,78.66
2017-10-08T12:15:55.657Z,78.32
2017-10-08T12:17:02.474Z,78.50
2017-10-08T12:18:09.237Z,78.38
2017-10-08T12:19:16.006Z,78.41
2017-10-08T12:20:22.871Z,78.10
2017-10-08T12:21:29.705Z,77.97
2017-10-08T12:22:36.452Z,77.90
2017-10-08T12:23:43.278Z,77.89
2017-10-08T12:24:50.039Z,77.82
2017-10-08T12:25:56.835Z,77.49
2017-10-08T12:27:03.561Z,77.54
2017-10-08T12:28:10.381Z,77.58
2017-10-08T12:29:17.139Z,77.55
2017-10-08T12:30:23.934Z,77.37
2017-10-08T12:31:30.747Z,77.44
2017-10-08T12:32:37.478Z,77.28
2017-10-08T12:33:44.229Z,77.13
2017-10-08T12:34:51.093Z,76.82
2017-10-08T12:35:57.849Z,76.93
2017-10-08T12:37:04.703Z,76.63
2017-10-08T12:38:11.453Z,76.61
2017-10-08T12:39:18.205Z,76.75
2017-10-08T12:40:24.929Z,76.77
2017-10-08T12:41:31.747Z,76.59
2017-10-08T12:42:38.502Z,76.55
2017-10-08T12:43:45.270Z,76.29
2017-10-08T12:44:52.084Z,76.17
2017-10-08T12:45:58.872Z,76.17
2017-10-08T12:47:05.604Z,76.28
2017-10-08T12:48:12.382Z,76.27
2017-10-08T12:49:19.154Z,76.25
2017-10-08T12:50:25.912Z,76.12
2017-10-08T12:51:32.724Z,76.08
2017-10-08T12:52:39.595Z,76.20
2017-10-08T12:53:46.424Z,75.95
2017-10-08T12:54:53.183Z,75.95
2017-10-08T12:55:59.882Z,75.88
2017-10-08T12:57:06.667Z,75.85
2017-10-08T12:58:13.490Z,75.76
2017-10-08T12:59:20.221Z,75.69
2017-10-08T13:00:27.062Z,75.55
2017-10-08T13:01:33.834Z,75.49
2017-10-08T13:02:40.595Z,75.73
2017-10-08T13:03:47.416Z,75.80
2017-10-08T13:04:54.314Z,75.84
2017-10-08T13:06:01.154Z,75.83
2017-10-08T13:07:07.965Z,75.60
2017-10-08T13:08:14.742Z,75.61
2017-10-08T13:09:21.504Z,75.55
2017-10-08T13:10:28.297Z,75.56
2017-10-08T13:11:35.149Z,75.47
2017-10-08T13:12:41.961Z,75.48
2017-10-08T13:13:48.713Z,75.58
2017-10-08T13:14:55.542Z,75.57
2017-10-08T13:16:02.301Z,75.39
2017-10-08T13:17:09.143Z,75.44
2017-10-08T13:18:15.969Z,75.57
2017-10-08T13:19:22.835Z,75.46
2017-10-08T13:20:29.616Z,75.34
2017-10-08T13:21:36.378Z,75.24
2017-10-08T13:22:43.154Z,75.29
2017-10-08T13:23:49.939Z,75.35
2017-10-08T13:24:56.753Z,75.43
2017-10-08T13:26:03.629Z,75.52
2017-10-08T13:27:10.410Z,75.48
2017-10-08T13:28:17.218Z,75.35
2017-10-08T13:29:23.968Z,75.21
2017-10-08T13:30:30.706Z,75.29
2017-10-08T13:31:37.621Z,75.24
2017-10-08T13:32:44.410Z,75.31
2017-10-08T13:33:51.150Z,75.29
2017-10-08T13:34:58.006Z,75.10
2017-10-08T13:36:04.778Z,74.99
2017-10-08T13:37:11.537Z,75.10
2017-10-08T13:38:18.338Z,75.18
2017-10-08T13:39:25.084Z,75.10
2017-10-08T13:40:31.867Z,75.13
2017-10-08T13:41:38.683Z,75.12
2017-10-08T13:42:45.457Z,75.17
2017-10-08T13:43:52.312Z,75.24
2017-10-08T13:44:59.051Z,75.33
2017-10-08T13:46:05.808Z,75.29
2017-10-08T13:47:12.579Z,75.39
2017-10-08T13:48:19.385Z,75.32
2017-10-08T13:49:26.173Z,75.37
2017-10-08T13:50:32.927Z,75.39
2017-10-08T13:51:39.716Z,75.47
2017-10-08T13:52:46.509Z,75.35
2017-10-08T13:53:53.266Z,75.27
2017-10-08T13:55:00.031Z,75.18
2017-10-08T13:56:06.877Z,75.12
2017-10-08T13:57:13.717Z,75.18
2017-10-08T13:58:20.517Z,75.32
2017-10-08T13:59:27.289Z,75.29
2017-10-08T14:00:34.048Z,75.34
2017-10-08T14:01:40.798Z,75.29
2017-10-08T14:02:47.603Z,75.35
2017-10-08T14:03:54.391Z,75.33
2017-10-08T14:05:01.152Z,75.34
2017-10-08T14:06:08.093Z,75.52
2017-10-08T14:07:14.841Z,75.15
2017-10-08T14:08:21.625Z,74.99
2017-10-08T14:09:28.348Z,74.87
2017-10-08T14:10:35.108Z,74.65
2017-10-08T14:11:41.876Z,74.66
2017-10-08T14:12:48.742Z,74.58
2017-10-08T14:13:55.480Z,74.63
2017-10-08T14:15:02.240Z,74.41
2017-10-08T14:16:08.985Z,74.45
2017-10-08T14:17:15.873Z,74.44
2017-10-08T14:18:22.642Z,74.45
2017-10-08T14:19:29.407Z,74.26
2017-10-08T14:20:36.154Z,74.06
2017-10-08T14:21:42.899Z,73.86
2017-10-08T14:22:49.705Z,73.77
2017-10-08T14:23:56.580Z,73.79
2017-10-08T14:25:03.397Z,73.57
2017-10-08T14:26:10.122Z,73.46
2017-10-08T14:27:16.865Z,73.43